Time;durP1;ratioP1;P1;durP2;ratioP2;P2;SDS_P1;SDS_P2;PMS_P1;PMS_P2;Temp;Humidity;BMP_temperature;BMP_pressure;BME280_temperature;BME280_humidity;BME280_pressure;Samples;Min_cycle;Max_cycle;Signal;HPM_P1;HPM_P2
2022/06/15 00:02:27;;;;;;;10.85;2.30;;;11.90;99.90;;;;;;4891436;29;20505;-59
2022/06/15 00:04:54;;;;;;;9.18;1.65;;;11.90;99.90;;;;;;4892680;29;20060;-58
2022/06/15 00:07:22;;;;;;;5.10;1.70;;;11.80;99.90;;;;;;4887378;29;20048;-58
2022/06/15 00:09:50;;;;;;;4.43;1.42;;;11.80;99.90;;;;;;4892478;29;20064;-57
2022/06/15 00:12:18;;;;;;;4.60;1.30;;;11.80;99.90;;;;;;4893119;29;20056;-58
2022/06/15 00:14:45;;;;;;;6.10;1.70;;;11.80;99.90;;;;;;4892658;29;20413;-58
2022/06/15 00:17:13;;;;;;;4.80;1.67;;;11.70;99.90;;;;;;4892679;29;20059;-59
2022/06/15 00:19:41;;;;;;;2.95;1.45;;;11.60;99.90;;;;;;4883414;29;20040;-59
2022/06/15 00:22:08;;;;;;;5.47;1.50;;;11.60;99.90;;;;;;4890174;29;20061;-58
2022/06/15 00:24:36;;;;;;;3.25;1.67;;;11.60;99.90;;;;;;4887714;29;20051;-58
2022/06/15 00:27:04;;;;;;;4.75;1.77;;;11.60;99.90;;;;;;4889957;29;20048;-58
2022/06/15 00:29:33;;;;;;;8.60;2.15;;;11.50;99.90;;;;;;4888405;29;20068;-59
2022/06/15 00:32:01;;;;;;;3.85;1.48;;;11.50;99.90;;;;;;4894321;29;20497;-58
2022/06/15 00:34:29;;;;;;;7.10;1.70;;;11.50;99.90;;;;;;4889643;29;20056;-57
2022/06/15 00:36:57;;;;;;;4.55;1.25;;;11.40;99.90;;;;;;4893369;29;20067;-56
2022/06/15 00:39:24;;;;;;;6.57;1.90;;;11.40;99.90;;;;;;4893197;29;20048;-57
2022/06/15 00:41:52;;;;;;;8.90;2.10;;;11.40;99.90;;;;;;4893535;29;20548;-58
2022/06/15 00:44:23;;;;;;;3.72;1.60;;;11.30;99.90;;;;;;4890848;29;20068;-59
2022/06/15 00:47:00;;;;;;;4.07;2.03;;;11.30;99.90;;;;;;4893000;29;20627;-58
2022/06/15 00:49:30;;;;;;;4.63;1.92;;;11.20;99.90;;;;;;4892180;29;20056;-59
2022/06/15 00:52:15;;;;;;;3.58;1.75;;;11.20;99.90;;;;;;4891949;29;20497;-59
2022/06/15 00:54:49;;;;;;;2.70;1.58;;;11.10;99.90;;;;;;4888024;29;20063;-59
2022/06/15 00:57:17;;;;;;;3.92;2.25;;;11.00;99.90;;;;;;4891813;29;20394;-58
2022/06/15 00:59:57;;;;;;;7.18;1.92;;;11.00;99.90;;;;;;4890948;29;20461;-58
2022/06/15 01:02:27;;;;;;;4.15;2.38;;;11.00;99.90;;;;;;4892093;29;20061;-58
2022/06/15 01:05:00;;;;;;;4.43;2.00;;;10.90;99.90;;;;;;4879181;29;20045;-57
2022/06/15 01:07:41;;;;;;;3.20;1.88;;;10.90;99.90;;;;;;4883394;29;20052;-58
2022/06/15 01:10:40;;;;;;;3.13;1.92;;;10.90;99.90;;;;;;4894609;29;20040;-58
2022/06/15 01:13:45;;;;;;;5.70;2.03;;;10.80;99.90;;;;;;4897354;29;20429;-56
2022/06/15 01:16:37;;;;;;;6.53;1.77;;;10.80;99.90;;;;;;4878623;29;20045;-57
2022/06/15 01:19:23;;;;;;;4.18;1.83;;;10.70;99.90;;;;;;4883682;29;20064;-58
2022/06/15 01:22:11;;;;;;;5.97;2.50;;;10.70;99.90;;;;;;4878574;29;20057;-56
2022/06/15 01:25:08;;;;;;;6.97;2.28;;;10.60;99.90;;;;;;4891220;29;20513;-58
2022/06/15 01:27:45;;;;;;;6.43;2.38;;;10.60;99.90;;;;;;4876624;29;20317;-58
2022/06/15 01:30:38;;;;;;;8.43;1.95;;;10.50;99.90;;;;;;4896908;29;20056;-57
2022/06/15 01:33:09;;;;;;;6.72;1.85;;;10.50;99.90;;;;;;4888061;29;20048;-59
2022/06/15 01:35:48;;;;;;;5.47;2.03;;;10.50;99.90;;;;;;4895762;29;20516;-59
2022/06/15 01:38:25;;;;;;;5.15;2.10;;;10.40;99.90;;;;;;4898433;29;20056;-59
2022/06/15 01:41:11;;;;;;;6.13;1.77;;;10.40;99.90;;;;;;4898418;29;20057;-59
2022/06/15 01:43:50;;;;;;;6.22;2.13;;;10.40;99.90;;;;;;4879004;29;20073;-59
2022/06/15 01:46:19;;;;;;;5.15;2.35;;;10.40;99.90;;;;;;4878105;29;20053;-58
2022/06/15 01:48:51;;;;;;;4.47;1.95;;;10.40;99.90;;;;;;4881451;29;20044;-59
2022/06/15 01:51:22;;;;;;;4.15;2.03;;;10.40;99.90;;;;;;4895292;29;20490;-59
2022/06/15 01:54:03;;;;;;;3.55;2.13;;;10.30;99.90;;;;;;4896379;29;20056;-58
2022/06/15 01:56:39;;;;;;;4.47;2.67;;;10.30;99.90;;;;;;4896133;29;20056;-59
2022/06/15 01:59:44;;;;;;;3.53;1.98;;;10.30;99.90;;;;;;4880084;29;20063;-58
2022/06/15 02:02:16;;;;;;;5.18;2.45;;;10.20;99.90;;;;;;4895804;29;20506;-58
2022/06/15 02:05:01;;;;;;;6.93;2.50;;;10.20;99.90;;;;;;4879367;29;20052;-59
2022/06/15 02:07:29;;;;;;;5.10;2.05;;;10.20;99.90;;;;;;4890763;29;20049;-58
2022/06/15 02:10:03;;;;;;;7.82;2.30;;;10.20;99.90;;;;;;4896025;29;20044;-59
2022/06/15 02:12:41;;;;;;;4.95;2.45;;;10.20;99.90;;;;;;4895459;29;20048;-58
2022/06/15 02:15:12;;;;;;;3.28;2.40;;;10.10;99.90;;;;;;4892913;29;20045;-58
2022/06/15 02:17:48;;;;;;;8.63;2.90;;;10.10;99.90;;;;;;4882072;29;20049;-58
2022/06/15 02:20:24;;;;;;;9.82;2.63;;;10.10;99.90;;;;;;4884848;29;20502;-58
2022/06/15 02:22:55;;;;;;;5.68;2.70;;;10.00;99.90;;;;;;4895167;29;20047;-59
2022/06/15 02:25:27;;;;;;;3.42;2.47;;;10.00;99.90;;;;;;4893795;29;20059;-58
2022/06/15 02:27:56;;;;;;;6.78;2.70;;;10.00;99.90;;;;;;4878453;29;20049;-58
2022/06/15 02:30:26;;;;;;;5.97;2.60;;;10.00;99.90;;;;;;4895432;29;20056;-58
2022/06/15 02:33:30;;;;;;;6.30;2.28;;;10.00;99.90;;;;;;4896593;29;20067;-58
2022/06/15 02:36:02;;;;;;;6.93;2.60;;;9.90;99.90;;;;;;4892649;29;20067;-59
2022/06/15 02:38:31;;;;;;;9.52;4.05;;;9.90;99.90;;;;;;4895639;29;20433;-58
2022/06/15 02:40:58;;;;;;;4.90;2.38;;;9.80;99.90;;;;;;4897457;29;20060;-58
2022/06/15 02:43:29;;;;;;;5.38;2.75;;;9.90;99.90;;;;;;4894269;29;20057;-59
2022/06/15 02:46:00;;;;;;;8.15;4.32;;;9.80;99.90;;;;;;4896427;29;20067;-58
2022/06/15 02:48:35;;;;;;;6.50;3.10;;;9.80;99.90;;;;;;4896373;29;20064;-59
2022/06/15 02:51:09;;;;;;;7.32;3.60;;;9.80;99.90;;;;;;4895181;29;20060;-59
2022/06/15 02:53:41;;;;;;;6.93;2.88;;;9.80;99.90;;;;;;4895318;29;20493;-58
2022/06/15 02:56:12;;;;;;;7.38;3.20;;;9.80;99.90;;;;;;4895178;29;20052;-57
2022/06/15 02:58:44;;;;;;;9.00;3.33;;;9.70;99.90;;;;;;4879732;29;20074;-58
2022/06/15 03:01:13;;;;;;;7.97;4.35;;;9.70;99.90;;;;;;4894787;29;20061;-58
2022/06/15 03:03:42;;;;;;;6.07;3.50;;;9.70;99.90;;;;;;4877672;29;20060;-58
2022/06/15 03:06:18;;;;;;;7.57;3.80;;;9.60;99.90;;;;;;4895737;29;20056;-59
2022/06/15 03:08:48;;;;;;;7.55;3.55;;;9.60;99.90;;;;;;4894917;29;20071;-58
2022/06/15 03:11:28;;;;;;;5.83;3.20;;;9.60;99.90;;;;;;4900443;29;20060;-61
2022/06/15 03:14:01;;;;;;;10.00;4.38;;;9.60;99.90;;;;;;4895678;29;20656;-60
2022/06/15 03:16:30;;;;;;;7.28;4.18;;;9.60;99.90;;;;;;4879050;29;20057;-59
2022/06/15 03:18:58;;;;;;;7.38;3.88;;;9.60;99.90;;;;;;4895809;29;20053;-58
2022/06/15 03:21:27;;;;;;;10.05;4.22;;;9.50;99.90;;;;;;4894778;29;20056;-59
2022/06/15 03:23:56;;;;;;;11.43;4.13;;;9.50;99.90;;;;;;4879318;29;20409;-56
2022/06/15 03:26:24;;;;;;;8.82;4.32;;;9.50;99.90;;;;;;4894388;29;20416;-59
2022/06/15 03:28:52;;;;;;;7.53;3.65;;;9.50;99.90;;;;;;4878843;29;20048;-58
2022/06/15 03:31:20;;;;;;;13.52;4.18;;;9.50;99.90;;;;;;4879484;29;20057;-58
2022/06/15 03:33:48;;;;;;;10.93;4.75;;;9.50;99.90;;;;;;4894350;29;20493;-57
2022/06/15 03:36:20;;;;;;;7.22;3.78;;;9.40;99.90;;;;;;4895344;29;20056;-58
2022/06/15 03:38:48;;;;;;;9.60;4.90;;;9.50;99.90;;;;;;4879990;29;20068;-57
2022/06/15 03:41:20;;;;;;;11.27;5.55;;;9.40;99.90;;;;;;4894317;29;20045;-57
2022/06/15 03:43:51;;;;;;;9.02;5.07;;;9.40;99.90;;;;;;4895074;29;20076;-56
2022/06/15 03:46:23;;;;;;;8.93;4.60;;;9.40;99.90;;;;;;4895395;29;20378;-59
2022/06/15 03:48:55;;;;;;;10.45;6.00;;;9.40;99.90;;;;;;4894288;29;20044;-57
2022/06/15 03:51:23;;;;;;;10.23;4.53;;;9.40;99.90;;;;;;4894854;29;20053;-56
2022/06/15 03:53:59;;;;;;;8.07;4.32;;;9.40;99.90;;;;;;4895213;29;20060;-58
2022/06/15 03:56:45;;;;;;;6.90;4.35;;;9.30;99.90;;;;;;4879887;29;20381;-59
2022/06/15 03:59:18;;;;;;;8.82;4.82;;;9.40;99.90;;;;;;4895093;29;20063;-58
2022/06/15 04:01:50;;;;;;;18.02;6.10;;;9.40;99.90;;;;;;4893786;29;20060;-59
2022/06/15 04:04:18;;;;;;;6.43;4.50;;;9.30;99.90;;;;;;4893426;29;20059;-59
2022/06/15 04:06:47;;;;;;;11.27;5.35;;;9.30;99.90;;;;;;4894052;29;20049;-59
2022/06/15 04:09:21;;;;;;;11.40;4.95;;;9.30;99.90;;;;;;4878153;29;20509;-59
2022/06/15 04:11:59;;;;;;;7.75;5.47;;;9.30;99.90;;;;;;4894014;29;20065;-59
2022/06/15 04:14:35;;;;;;;9.23;4.75;;;9.30;99.90;;;;;;4908840;29;20052;-59
2022/06/15 04:17:23;;;;;;;8.98;4.47;;;9.30;99.90;;;;;;4876539;29;20053;-59
2022/06/15 04:22:57;;;;;;;9.32;5.07;;;9.30;99.90;;;;;;4876476;29;20037;-60
2022/06/15 04:25:25;;;;;;;9.52;4.55;;;9.30;99.90;;;;;;4890326;29;20056;-60
2022/06/15 04:27:53;;;;;;;11.00;5.28;;;9.30;99.90;;;;;;4893155;29;20048;-59
2022/06/15 04:30:21;;;;;;;8.70;4.70;;;9.30;99.90;;;;;;4895009;29;20067;-59
2022/06/15 04:32:54;;;;;;;12.90;5.05;;;9.30;99.90;;;;;;4894769;29;20057;-59
2022/06/15 04:35:30;;;;;;;7.53;5.00;;;9.30;99.90;;;;;;4893267;29;20049;-59
2022/06/15 04:38:00;;;;;;;9.57;4.88;;;9.40;99.90;;;;;;4894935;29;20053;-59
2022/06/15 04:40:36;;;;;;;9.32;5.38;;;9.40;99.90;;;;;;4894771;29;20044;-59
2022/06/15 04:43:05;;;;;;;17.60;5.03;;;9.50;99.90;;;;;;4895350;29;20072;-59
2022/06/15 04:45:34;;;;;;;10.35;4.88;;;9.50;99.90;;;;;;4897584;29;20049;-59
2022/06/15 04:48:09;;;;;;;14.98;5.57;;;9.60;99.90;;;;;;4885130;29;20049;-59
2022/06/15 04:50:40;;;;;;;12.00;5.57;;;9.70;99.90;;;;;;4876483;29;20052;-57
2022/06/15 04:53:08;;;;;;;13.13;5.35;;;9.70;99.90;;;;;;4882663;29;20071;-57
2022/06/15 04:55:36;;;;;;;12.48;5.78;;;9.80;99.90;;;;;;4893298;29;20075;-58
2022/06/15 04:58:05;;;;;;;11.23;5.32;;;9.80;99.90;;;;;;4893674;29;20060;-59
2022/06/15 05:00:40;;;;;;;10.45;4.90;;;9.90;99.90;;;;;;4894806;29;20052;-58
2022/06/15 05:03:11;;;;;;;10.35;4.95;;;9.90;99.90;;;;;;4887506;29;20045;-58
2022/06/15 05:05:39;;;;;;;9.88;5.13;;;9.90;99.90;;;;;;4887049;29;20074;-59
2022/06/15 05:08:07;;;;;;;8.02;5.35;;;10.00;99.90;;;;;;4882810;29;20049;-59
2022/06/15 05:10:38;;;;;;;8.43;5.15;;;10.00;99.90;;;;;;4870126;29;20067;-59
2022/06/15 05:13:08;;;;;;;8.90;5.43;;;10.00;99.90;;;;;;4898078;29;20056;-59
2022/06/15 05:15:38;;;;;;;8.15;4.65;;;10.10;99.90;;;;;;4873968;29;20049;-58
2022/06/15 05:18:08;;;;;;;10.05;5.13;;;10.10;99.90;;;;;;4881769;29;20045;-58
2022/06/15 05:20:40;;;;;;;13.80;5.57;;;10.10;99.90;;;;;;4877810;29;20037;-63
2022/06/15 05:23:14;;;;;;;12.70;5.53;;;10.10;99.90;;;;;;4893929;29;20061;-58
2022/06/15 05:26:08;;;;;;;13.38;5.82;;;10.20;99.90;;;;;;4876915;29;20068;-59
2022/06/15 05:28:45;;;;;;;11.35;5.40;;;10.30;99.90;;;;;;4886569;29;20040;-58
2022/06/15 05:31:18;;;;;;;8.35;5.20;;;10.30;99.90;;;;;;4886993;29;20053;-59
2022/06/15 05:33:56;;;;;;;12.07;5.85;;;10.40;99.90;;;;;;4868689;29;20553;-58
2022/06/15 05:36:26;;;;;;;;;;;10.50;99.90;;;;;;4882018;29;20041;-59
2022/06/15 05:38:54;;;;;;;11.00;5.80;;;10.50;99.90;;;;;;4892605;29;19923;-59
2022/06/15 05:41:23;;;;;;;14.37;6.53;;;10.50;99.90;;;;;;4894354;29;20048;-57
2022/06/15 05:46:34;;;;;;;10.63;6.25;;;10.60;99.90;;;;;;4894737;29;20041;-60
2022/06/15 05:49:20;;;;;;;13.18;5.78;;;10.60;99.90;;;;;;4894183;29;20055;-58
2022/06/15 05:51:47;;;;;;;14.05;6.85;;;10.60;99.90;;;;;;4882894;29;20040;-58
2022/06/15 05:54:15;;;;;;;12.15;5.97;;;10.70;99.90;;;;;;4902346;29;20045;-59
2022/06/15 05:56:43;;;;;;;12.32;6.85;;;10.70;99.90;;;;;;4892417;29;20396;-58
2022/06/15 05:59:11;;;;;;;10.98;6.57;;;10.80;99.90;;;;;;4888020;29;20466;-58
2022/06/15 06:01:39;;;;;;;12.20;6.60;;;10.90;99.90;;;;;;4894138;29;20135;-58
2022/06/15 06:04:07;;;;;;;13.88;6.18;;;10.90;99.90;;;;;;4894634;29;20052;-58
2022/06/15 06:06:35;;;;;;;13.65;6.65;;;11.00;99.90;;;;;;4887358;29;20049;-58
2022/06/15 06:09:03;;;;;;;17.30;7.15;;;11.20;99.90;;;;;;4894364;29;20715;-58
2022/06/15 06:11:31;;;;;;;14.73;6.65;;;11.30;99.90;;;;;;4894699;29;20048;-58
2022/06/15 06:13:58;;;;;;;15.95;6.03;;;11.40;99.90;;;;;;4895397;29;20052;-57
2022/06/15 06:16:26;;;;;;;10.63;6.40;;;11.50;99.90;;;;;;4894292;29;20044;-56
2022/06/15 06:18:54;;;;;;;12.40;5.88;;;11.60;99.90;;;;;;4887785;29;20057;-59
2022/06/15 06:21:22;;;;;;;14.95;6.57;;;11.70;99.90;;;;;;4881464;29;20048;-59
2022/06/15 06:23:50;;;;;;;16.67;6.60;;;11.80;99.90;;;;;;4891584;29;20062;-60
2022/06/15 06:26:31;;;;;;;14.10;6.82;;;12.00;99.90;;;;;;4886080;29;20052;-57
2022/06/15 06:28:59;;;;;;;13.20;6.55;;;12.10;99.90;;;;;;4887984;29;20059;-58
2022/06/15 06:31:28;;;;;;;11.93;6.50;;;12.20;99.90;;;;;;4892481;29;20044;-59
2022/06/15 06:33:56;;;;;;;17.33;6.18;;;12.30;99.90;;;;;;4889947;29;20053;-59
2022/06/15 06:36:31;;;;;;;11.52;6.43;;;12.50;99.90;;;;;;4885121;29;20496;-59
2022/06/15 06:39:01;;;;;;;10.88;6.13;;;12.60;99.90;;;;;;4885513;29;20048;-58
2022/06/15 06:41:31;;;;;;;14.25;6.75;;;12.80;99.90;;;;;;4870460;29;20508;-58
2022/06/15 06:44:05;;;;;;;12.63;6.50;;;12.90;99.90;;;;;;4889577;29;20521;-57
2022/06/15 06:46:34;;;;;;;16.30;6.60;;;13.10;99.90;;;;;;4883553;29;20044;-58
2022/06/15 06:49:07;;;;;;;11.73;6.47;;;13.20;99.90;;;;;;4888638;29;20064;-58
2022/06/15 06:51:36;;;;;;;15.35;6.43;;;13.30;99.90;;;;;;4881111;29;20078;-58
2022/06/15 06:54:06;;;;;;;10.95;5.75;;;13.50;99.90;;;;;;4903987;29;20045;-56
2022/06/15 06:56:35;;;;;;;13.20;6.20;;;13.50;99.90;;;;;;4881483;29;20048;-58
2022/06/15 06:59:10;;;;;;;15.02;7.07;;;13.70;99.90;;;;;;4885457;29;20516;-59
2022/06/15 07:01:40;;;;;;;21.83;6.80;;;13.90;99.90;;;;;;4880354;29;20063;-58
2022/06/15 07:04:11;;;;;;;12.18;6.55;;;14.10;99.90;;;;;;4889345;29;20386;-58
2022/06/15 07:06:40;;;;;;;16.55;6.43;;;14.30;99.90;;;;;;4884586;29;20049;-57
2022/06/15 07:09:08;;;;;;;10.88;5.72;;;14.50;99.90;;;;;;4893084;29;20521;-58
2022/06/15 07:11:36;;;;;;;12.73;6.07;;;14.80;99.90;;;;;;4882753;29;20063;-57
2022/06/15 07:14:05;;;;;;;12.45;5.60;;;15.00;99.90;;;;;;4884384;29;20048;-57
2022/06/15 07:16:39;;;;;;;12.90;6.45;;;15.20;99.90;;;;;;4880425;29;20048;-58
2022/06/15 07:19:07;;;;;;;17.17;5.38;;;15.30;99.90;;;;;;4885674;29;20053;-57
2022/06/15 07:21:37;;;;;;;13.98;5.70;;;15.50;99.90;;;;;;4873834;29;20052;-56
2022/06/15 07:24:05;;;;;;;17.85;5.63;;;15.60;99.90;;;;;;4889771;29;20068;-57
2022/06/15 07:26:42;;;;;;;13.63;5.65;;;15.80;99.90;;;;;;4882747;29;20057;-57
2022/06/15 07:29:12;;;;;;;11.55;5.70;;;15.80;99.90;;;;;;4882111;29;20052;-54
2022/06/15 07:31:42;;;;;;;;;;;15.90;99.90;;;;;;4877776;29;20044;-55
2022/06/15 07:34:11;;;;;;;17.63;6.15;;;15.90;99.90;;;;;;4881717;29;20379;-55
2022/06/15 07:36:46;;;;;;;15.18;6.32;;;15.90;99.90;;;;;;4879849;29;20090;-55
2022/06/15 07:39:18;;;;;;;21.88;6.57;;;15.90;99.90;;;;;;4888867;29;20053;-55
2022/06/15 07:41:47;;;;;;;13.93;6.05;;;15.90;99.90;;;;;;4882232;29;20054;-56
2022/06/15 07:44:16;;;;;;;9.85;6.47;;;15.90;99.90;;;;;;4894893;29;20049;-57
2022/06/15 07:46:44;;;;;;;11.80;5.18;;;15.90;99.90;;;;;;4891394;29;20427;-56
2022/06/15 07:52:03;;;;;;;13.90;5.90;;;16.00;99.90;;;;;;4884395;29;20045;-57
2022/06/15 07:54:31;;;;;;;12.88;5.47;;;16.00;99.90;;;;;;4887386;29;20068;-55
2022/06/15 07:56:58;;;;;;;8.98;5.40;;;16.00;99.90;;;;;;4876625;29;20041;-56
2022/06/15 07:59:26;;;;;;;12.48;6.97;;;16.10;99.90;;;;;;4892272;29;20060;-56
2022/06/15 08:01:54;;;;;;;10.43;5.82;;;16.20;99.90;;;;;;4893345;29;20485;-56
2022/06/15 08:04:22;;;;;;;14.27;5.35;;;16.30;99.90;;;;;;4894273;29;20055;-56
2022/06/15 08:06:51;;;;;;;11.20;5.00;;;16.50;99.90;;;;;;4891207;29;20052;-57
2022/06/15 08:09:18;;;;;;;15.00;6.28;;;16.60;99.90;;;;;;4891682;29;20051;-57
2022/06/15 08:14:36;;;;;;;11.65;5.95;;;17.00;99.90;;;;;;4894226;29;20527;-56
2022/06/15 08:17:06;;;;;;;16.77;6.32;;;17.20;99.90;;;;;;4895879;29;20138;-56
2022/06/15 08:19:35;;;;;;;;;;;17.30;99.90;;;;;;4895240;29;20052;-56
2022/06/15 08:22:03;;;;;;;20.63;6.25;;;17.40;99.90;;;;;;4894459;29;19924;-56
2022/06/15 08:24:31;;;;;;;14.18;5.40;;;17.50;99.90;;;;;;4897198;29;20405;-56
2022/06/15 08:26:59;;;;;;;14.02;6.72;;;17.60;99.90;;;;;;4881841;29;20049;-56
2022/06/15 08:29:28;;;;;;;16.35;5.45;;;17.70;99.90;;;;;;4892727;29;20147;-56
2022/06/15 08:31:57;;;;;;;17.63;6.43;;;17.80;99.90;;;;;;4878465;29;20061;-56
2022/06/15 08:34:26;;;;;;;17.20;5.77;;;17.90;99.90;;;;;;4898298;29;20048;-56
2022/06/15 08:36:55;;;;;;;20.10;6.57;;;18.10;99.90;;;;;;4896371;29;20041;-56
2022/06/15 08:39:23;;;;;;;12.63;5.95;;;18.20;99.90;;;;;;4893646;29;20304;-57
2022/06/15 08:42:01;;;;;;;11.27;5.80;;;18.30;99.90;;;;;;4896066;29;20056;-56
2022/06/15 08:45:21;;;;;;;10.38;5.53;;;18.30;99.90;;;;;;4898220;29;20417;-56
2022/06/15 08:48:00;;;;;;;16.00;6.43;;;18.40;99.90;;;;;;4889096;29;20417;-56
2022/06/15 08:50:42;;;;;;;14.32;5.78;;;18.40;99.90;;;;;;4893642;29;20052;-56
2022/06/15 08:53:19;;;;;;;15.88;5.95;;;18.40;99.90;;;;;;4893747;29;20048;-56
2022/06/15 08:55:55;;;;;;;14.02;6.07;;;18.50;99.90;;;;;;4895114;29;20164;-56
2022/06/15 08:58:41;;;;;;;16.52;6.22;;;18.50;99.90;;;;;;4892370;29;20040;-56
2022/06/15 09:01:28;;;;;;;14.50;6.18;;;18.60;99.90;;;;;;4892362;29;20048;-56
2022/06/15 09:04:21;;;;;;;15.80;6.15;;;18.60;99.90;;;;;;4896213;29;20056;-56
2022/06/15 09:07:25;;;;;;;13.60;5.82;;;18.70;99.90;;;;;;4889695;29;20413;-56
2022/06/15 09:10:04;;;;;;;17.20;6.00;;;18.70;99.90;;;;;;4879521;29;20060;-56
2022/06/15 09:12:50;;;;;;;11.73;5.60;;;18.80;99.90;;;;;;4892128;29;20041;-56
2022/06/15 09:15:44;;;;;;;8.32;5.13;;;18.90;99.90;;;;;;4895876;29;20299;-56
2022/06/15 09:18:28;;;;;;;12.80;5.85;;;19.00;99.90;;;;;;4894071;29;20044;-56
2022/06/15 09:21:07;;;;;;;15.77;5.47;;;19.00;99.90;;;;;;4895167;29;20048;-57
2022/06/15 09:23:36;;;;;;;;;;;19.10;99.90;;;;;;4892827;29;20056;-56
2022/06/15 09:26:09;;;;;;;20.75;6.57;;;19.20;99.90;;;;;;4895084;29;19927;-56
2022/06/15 09:28:43;;;;;;;13.55;6.47;;;19.30;99.90;;;;;;4886779;29;20056;-57
2022/06/15 09:31:33;;;;;;;18.58;6.30;;;19.50;99.90;;;;;;4893314;29;20048;-56
2022/06/15 09:34:04;;;;;;;11.23;5.53;;;19.50;99.90;;;;;;4886545;29;20371;-57
2022/06/15 09:36:48;;;;;;;12.45;5.47;;;19.60;99.90;;;;;;4887688;29;20040;-56
2022/06/15 09:39:17;;;;;;;17.58;5.60;;;19.70;99.90;;;;;;4895208;29;20063;-56
2022/06/15 09:41:45;;;;;;;14.35;6.60;;;19.80;99.90;;;;;;4894939;29;20383;-56
2022/06/15 09:44:24;;;;;;;10.05;5.20;;;19.90;99.90;;;;;;4879374;29;20506;-57
2022/06/15 09:47:20;;;;;;;17.33;5.63;;;20.00;99.90;;;;;;4887263;29;20056;-56
2022/06/15 09:49:59;;;;;;;22.35;5.47;;;20.00;99.90;;;;;;4896145;29;20048;-57
2022/06/15 09:53:08;;;;;;;10.73;4.97;;;20.10;99.90;;;;;;4878076;29;20056;-57
2022/06/15 09:55:36;;;;;;;14.68;5.10;;;20.20;99.90;;;;;;4838183;29;20071;-57
2022/06/15 09:58:28;;;;;;;14.68;5.50;;;20.30;99.90;;;;;;4832605;29;20073;-56
2022/06/15 10:00:57;;;;;;;9.48;4.53;;;20.40;99.90;;;;;;4872582;29;20076;-57
2022/06/15 10:03:35;;;;;;;9.57;4.82;;;20.40;99.90;;;;;;4879119;29;20048;-57
2022/06/15 10:06:23;;;;;;;9.95;4.10;;;20.60;99.90;;;;;;4896573;29;20385;-57
2022/06/15 10:08:52;;;;;;;8.20;4.40;;;20.70;99.90;;;;;;4890411;29;20239;-57
2022/06/15 10:11:42;;;;;;;11.70;5.03;;;20.80;99.90;;;;;;4895629;29;20052;-57
2022/06/15 10:14:31;;;;;;;9.18;3.90;;;21.00;99.90;;;;;;4886658;29;20055;-57
2022/06/15 10:17:05;;;;;;;10.27;4.45;;;21.10;99.90;;;;;;4885419;29;20409;-57
2022/06/15 10:19:34;;;;;;;9.57;4.45;;;21.20;99.90;;;;;;4896085;29;20492;-57
2022/06/15 10:22:09;;;;;;;8.43;3.75;;;21.30;99.90;;;;;;4892862;29;20057;-56
2022/06/15 10:24:40;;;;;;;10.32;4.32;;;21.50;99.90;;;;;;4895005;29;20052;-58
2022/06/15 10:27:40;;;;;;;9.52;4.40;;;21.60;99.90;;;;;;4895755;29;20060;-57
2022/06/15 10:30:07;;;;;;;8.70;3.50;;;21.70;99.30;;;;;;4879210;29;20486;-57
2022/06/15 10:32:38;;;;;;;8.70;3.30;;;21.70;98.30;;;;;;4896193;29;20059;-57
2022/06/15 10:35:18;;;;;;;7.15;3.38;;;21.80;97.80;;;;;;4892505;29;20056;-57
2022/06/15 10:37:49;;;;;;;11.13;4.25;;;21.80;97.50;;;;;;4895966;29;20516;-57
2022/06/15 10:40:30;;;;;;;9.50;2.55;;;22.00;97.20;;;;;;4892549;29;20373;-57
2022/06/15 10:43:16;;;;;;;5.10;1.85;;;22.10;95.60;;;;;;4888846;29;20517;-57
2022/06/15 10:45:55;;;;;;;16.42;2.92;;;22.20;94.20;;;;;;4876044;29;20481;-57
2022/06/15 10:48:26;;;;;;;10.37;2.10;;;22.30;93.60;;;;;;4884772;29;20405;-57
2022/06/15 10:50:57;;;;;;;3.80;1.40;;;22.40;92.80;;;;;;4893834;29;20769;-57
2022/06/15 10:53:45;;;;;;;6.85;2.30;;;22.50;90.70;;;;;;4894410;29;20060;-58
2022/06/15 11:02:29;;;;;;;10.95;3.10;;;22.50;90.10;;;;;;4890698;29;20049;-56
2022/06/15 11:05:22;;;;;;;10.65;3.10;;;22.50;90.50;;;;;;4870463;29;20057;-56
2022/06/15 11:07:59;;;;;;;8.75;2.63;;;22.70;90.50;;;;;;4881605;29;20056;-56
2022/06/15 11:10:35;;;;;;;10.23;2.88;;;22.90;90.70;;;;;;4892844;29;20043;-57
2022/06/15 11:13:29;;;;;;;8.70;2.97;;;23.00;90.50;;;;;;5144452;27;20402;-57
2022/06/15 11:19:03;;;;;;;7.05;3.15;;;23.40;89.10;;;;;;5147078;27;20482;-57
2022/06/15 11:21:43;;;;;;;6.32;3.55;;;23.40;88.70;;;;;;5145875;27;20517;-57
2022/06/15 11:24:39;;;;;;;9.40;3.78;;;23.60;87.50;;;;;;5127598;27;20051;-57
2022/06/15 11:27:28;;;;;;;4.63;2.88;;;23.70;86.30;;;;;;5107571;28;20036;-57
2022/06/15 11:30:05;;;;;;;7.68;3.25;;;23.70;85.30;;;;;;5107923;28;20039;-57
2022/06/15 11:32:38;;;;;;;8.25;2.80;;;23.50;84.90;;;;;;5122743;28;20487;-57
2022/06/15 11:35:18;;;;;;;8.65;3.58;;;23.30;85.20;;;;;;5123693;27;20043;-57
2022/06/15 11:38:11;;;;;;;6.85;2.95;;;23.20;86.10;;;;;;5121765;28;20089;-57
2022/06/15 11:40:41;;;;;;;9.15;2.80;;;23.20;87.50;;;;;;5118200;28;20044;-57
2022/06/15 11:43:29;;;;;;;16.08;3.15;;;23.50;87.30;;;;;;5122813;28;20036;-58
2022/06/15 11:46:42;;;;;;;5.78;2.38;;;23.70;85.90;;;;;;5120325;28;20063;-57
2022/06/15 11:49:30;;;;;;;5.95;2.83;;;24.00;83.50;;;;;;5117609;28;20055;-57
2022/06/15 11:52:31;;;;;;;5.03;2.53;;;24.30;81.70;;;;;;5123479;28;20051;-57
2022/06/15 11:55:14;;;;;;;8.82;3.10;;;24.50;80.80;;;;;;5124069;28;20063;-57
2022/06/15 11:58:12;;;;;;;5.13;3.33;;;24.80;81.50;;;;;;5122141;28;20048;-57
2022/06/15 12:01:14;;;;;;;7.32;2.80;;;24.90;80.10;;;;;;5125297;28;20042;-59
2022/06/15 12:04:01;;;;;;;5.28;3.13;;;25.20;82.00;;;;;;5122891;28;20039;-56
2022/06/15 12:06:47;;;;;;;6.28;2.72;;;25.50;79.70;;;;;;5126479;28;20043;-58
2022/06/15 12:09:45;;;;;;;5.00;2.20;;;25.70;78.30;;;;;;5117082;28;20533;-58
2022/06/15 12:12:56;;;;;;;2.38;2.10;;;25.70;76.10;;;;;;5123791;28;20062;-58
2022/06/15 12:15:24;;;;;;;7.15;2.50;;;25.90;75.50;;;;;;5114353;28;20043;-58
2022/06/15 12:18:10;;;;;;;5.85;2.92;;;26.10;76.40;;;;;;5121695;28;20047;-56
2022/06/15 12:20:49;;;;;;;6.68;2.70;;;26.30;74.80;;;;;;5125074;28;20043;-56
2022/06/15 12:23:24;;;;;;;7.25;3.20;;;26.30;73.50;;;;;;5117546;28;20036;-58
2022/06/15 12:26:16;;;;;;;4.85;2.75;;;26.30;73.50;;;;;;5108634;28;20040;-57
2022/06/15 12:28:57;;;;;;;11.60;3.00;;;26.30;73.40;;;;;;5099036;28;20039;-57
2022/06/15 12:31:45;;;;;;;8.63;3.50;;;26.40;73.90;;;;;;5103938;28;20062;-57
2022/06/15 12:34:45;;;;;;;6.57;2.63;;;26.50;72.10;;;;;;5106949;28;20303;-58
2022/06/15 12:37:16;;;;;;;20.48;3.92;;;26.50;72.00;;;;;;5109866;28;20048;-58
2022/06/15 12:40:22;;;;;;;7.82;3.28;;;26.60;71.00;;;;;;5104948;28;20048;-58
2022/06/15 12:42:57;;;;;;;7.72;3.50;;;26.60;70.20;;;;;;5109730;28;20050;-58
2022/06/15 12:45:32;;;;;;;5.13;2.70;;;26.60;71.10;;;;;;5108322;28;20071;-58
2022/06/15 12:48:05;;;;;;;7.78;2.83;;;26.50;71.40;;;;;;5108165;28;20505;-58
2022/06/15 12:50:41;;;;;;;6.15;2.85;;;26.40;71.40;;;;;;5109410;28;20405;-58
2022/06/15 12:53:38;;;;;;;6.60;3.00;;;26.30;71.10;;;;;;5108696;28;20063;-58
2022/06/15 12:56:33;;;;;;;4.88;2.95;;;26.20;70.50;;;;;;5076339;28;20384;-57
2022/06/15 12:59:24;;;;;;;11.48;3.25;;;26.00;70.80;;;;;;5105613;28;20438;-59
2022/06/15 13:02:15;;;;;;;11.13;2.90;;;25.80;70.70;;;;;;5110315;28;20047;-58
2022/06/15 13:05:19;;;;;;;10.02;2.63;;;25.70;71.20;;;;;;5110171;28;20050;-58
2022/06/15 13:08:11;;;;;;;9.05;2.70;;;25.50;71.50;;;;;;5100652;28;20486;-59
2022/06/15 13:10:54;;;;;;;7.85;2.50;;;25.40;71.80;;;;;;5102264;28;20035;-58
2022/06/15 13:13:48;;;;;;;3.78;2.38;;;25.40;72.50;;;;;;5096289;28;20055;-58
2022/06/15 13:16:33;;;;;;;6.85;2.67;;;25.20;72.20;;;;;;5103211;28;20541;-57
2022/06/15 13:19:03;;;;;;;6.38;2.85;;;24.90;72.40;;;;;;5093633;28;20051;-56
2022/06/15 13:21:55;;;;;;;9.93;3.28;;;24.60;72.60;;;;;;5097053;28;20059;-58
2022/06/15 13:24:24;;;;;;;12.60;3.33;;;24.20;73.60;;;;;;5104143;28;20055;-58
2022/06/15 13:26:55;;;;;;;16.88;4.65;;;24.10;74.10;;;;;;5106778;28;20047;-58
2022/06/15 13:29:29;;;;;;;6.10;2.58;;;23.90;74.20;;;;;;5100078;28;20039;-59
2022/06/15 13:32:03;;;;;;;8.77;2.83;;;23.70;74.80;;;;;;5103222;28;20050;-58
2022/06/15 13:34:33;;;;;;;6.75;2.80;;;23.70;75.30;;;;;;5093920;28;20044;-58
2022/06/15 13:37:15;;;;;;;10.82;2.83;;;23.60;75.40;;;;;;5106164;28;20364;-58
2022/06/15 13:39:46;;;;;;;5.80;2.58;;;23.50;76.00;;;;;;5101967;28;20082;-58
2022/06/15 13:42:28;;;;;;;4.25;2.70;;;23.40;75.90;;;;;;5075530;28;20048;-57
2022/06/15 13:45:07;;;;;;;5.32;3.03;;;23.20;76.20;;;;;;5101627;28;20044;-58
2022/06/15 13:48:00;;;;;;;5.25;3.15;;;23.10;76.80;;;;;;5083136;28;20062;-57
2022/06/15 13:50:39;;;;;;;6.82;2.95;;;23.00;77.50;;;;;;5088561;28;20506;-56
2022/06/15 13:53:28;;;;;;;4.18;2.80;;;22.80;78.10;;;;;;5107711;28;20043;-57